sensor_id;sensor_type;location;lat;lon;timestamp;temperature;humidity
66920;DHT22;53831;52.090;17.026;2023-03-23T00:00:36;11.00;99.90
66920;DHT22;53831;52.090;17.026;2023-03-23T00:01:36;11.00;99.90
66920;DHT22;53831;52.090;17.026;2023-03-23T00:02:37;11.00;99.90
66920;DHT22;53831;52.090;17.026;2023-03-23T00:03:38;11.00;99.90
66920;DHT22;53831;52.090;17.026;2023-03-23T00:04:40;11.00;99.90
66920;DHT22;53831;52.090;17.026;2023-03-23T00:05:42;11.00;99.90
66920;DHT22;53831;52.090;17.026;2023-03-23T00:06:50;11.00;99.90
66920;DHT22;53831;52.090;17.026;2023-03-23T00:07:50;11.00;99.90
66920;DHT22;53831;52.090;17.026;2023-03-23T00:08:53;11.00;99.90
66920;DHT22;53831;52.090;17.026;2023-03-23T00:09:59;11.00;99.90
66920;DHT22;53831;52.090;17.026;2023-03-23T00:11:03;11.00;99.90
66920;DHT22;53831;52.090;17.026;2023-03-23T00:12:04;11.00;99.90
66920;DHT22;53831;52.090;17.026;2023-03-23T00:13:05;11.00;99.90
66920;DHT22;53831;52.090;17.026;2023-03-23T00:14:06;11.00;99.90
66920;DHT22;53831;52.090;17.026;2023-03-23T00:15:13;11.00;99.90
66920;DHT22;53831;52.090;17.026;2023-03-23T00:16:17;11.00;99.90
66920;DHT22;53831;52.090;17.026;2023-03-23T00:17:19;11.00;99.90
66920;DHT22;53831;52.090;17.026;2023-03-23T00:18:20;11.00;99.90
66920;DHT22;53831;52.090;17.026;2023-03-23T00:19:21;11.00;99.90
66920;DHT22;53831;52.090;17.026;2023-03-23T00:20:22;11.10;99.90
66920;DHT22;53831;52.090;17.026;2023-03-23T00:21:26;11.10;99.90
66920;DHT22;53831;52.090;17.026;2023-03-23T00:22:34;11.10;99.90
66920;DHT22;53831;52.090;17.026;2023-03-23T00:23:38;11.10;99.90
66920;DHT22;53831;52.090;17.026;2023-03-23T00:24:39;11.10;99.90
66920;DHT22;53831;52.090;17.026;2023-03-23T00:25:41;11.10;99.90
66920;DHT22;53831;52.090;17.026;2023-03-23T00:26:42;11.10;99.90
66920;DHT22;53831;52.090;17.026;2023-03-23T00:27:44;11.10;99.90
66920;DHT22;53831;52.090;17.026;2023-03-23T00:28:45;11.10;99.90
66920;DHT22;53831;52.090;17.026;2023-03-23T00:29:47;11.10;99.90
66920;DHT22;53831;52.090;17.026;2023-03-23T00:30:48;11.00;99.90
66920;DHT22;53831;52.090;17.026;2023-03-23T00:31:49;11.00;99.90
66920;DHT22;53831;52.090;17.026;2023-03-23T00:32:50;11.00;99.90
66920;DHT22;53831;52.090;17.026;2023-03-23T00:33:51;11.00;99.90
66920;DHT22;53831;52.090;17.026;2023-03-23T00:34:53;11.00;99.90
66920;DHT22;53831;52.090;17.026;2023-03-23T00:36:00;11.00;99.90
66920;DHT22;53831;52.090;17.026;2023-03-23T00:37:01;10.90;99.90
66920;DHT22;53831;52.090;17.026;2023-03-23T00:38:02;10.90;99.90
66920;DHT22;53831;52.090;17.026;2023-03-23T00:39:03;10.90;99.90
66920;DHT22;53831;52.090;17.026;2023-03-23T00:40:04;10.80;99.90
66920;DHT22;53831;52.090;17.026;2023-03-23T00:41:11;10.80;99.90
66920;DHT22;53831;52.090;17.026;2023-03-23T00:42:13;10.80;99.90
66920;DHT22;53831;52.090;17.026;2023-03-23T00:43:16;10.80;99.90
66920;DHT22;53831;52.090;17.026;2023-03-23T00:44:17;10.80;99.90
66920;DHT22;53831;52.090;17.026;2023-03-23T00:45:19;10.80;99.90
66920;DHT22;53831;52.090;17.026;2023-03-23T00:46:20;10.80;99.90
66920;DHT22;53831;52.090;17.026;2023-03-23T00:47:20;10.80;99.90
66920;DHT22;53831;52.090;17.026;2023-03-23T00:48:24;10.80;99.90
66920;DHT22;53831;52.090;17.026;2023-03-23T00:49:26;10.80;99.90
66920;DHT22;53831;52.090;17.026;2023-03-23T00:50:28;10.80;99.90
66920;DHT22;53831;52.090;17.026;2023-03-23T00:51:29;10.80;99.90
66920;DHT22;53831;52.090;17.026;2023-03-23T00:52:29;10.70;99.90
66920;DHT22;53831;52.090;17.026;2023-03-23T00:53:30;10.80;99.90
66920;DHT22;53831;52.090;17.026;2023-03-23T00:54:31;10.70;99.90
66920;DHT22;53831;52.090;17.026;2023-03-23T00:55:32;10.70;99.90
66920;DHT22;53831;52.090;17.026;2023-03-23T00:56:34;10.70;99.90
66920;DHT22;53831;52.090;17.026;2023-03-23T00:57:35;10.70;99.90
66920;DHT22;53831;52.090;17.026;2023-03-23T00:58:35;10.70;99.90
66920;DHT22;53831;52.090;17.026;2023-03-23T00:59:36;10.70;99.90
66920;DHT22;53831;52.090;17.026;2023-03-23T01:00:37;10.70;99.90
66920;DHT22;53831;52.090;17.026;2023-03-23T01:01:39;10.60;99.90
66920;DHT22;53831;52.090;17.026;2023-03-23T01:02:40;10.50;99.90
66920;DHT22;53831;52.090;17.026;2023-03-23T01:03:40;10.60;99.90
66920;DHT22;53831;52.090;17.026;2023-03-23T01:04:41;10.60;99.90
66920;DHT22;53831;52.090;17.026;2023-03-23T01:05:45;10.60;99.90
66920;DHT22;53831;52.090;17.026;2023-03-23T01:06:49;10.60;99.90
66920;DHT22;53831;52.090;17.026;2023-03-23T01:07:51;10.60;99.90
66920;DHT22;53831;52.090;17.026;2023-03-23T01:08:52;10.50;99.90
66920;DHT22;53831;52.090;17.026;2023-03-23T01:09:54;10.50;99.90
66920;DHT22;53831;52.090;17.026;2023-03-23T01:11:00;10.50;99.90
66920;DHT22;53831;52.090;17.026;2023-03-23T01:12:03;10.50;99.90
66920;DHT22;53831;52.090;17.026;2023-03-23T01:13:07;10.50;99.90
66920;DHT22;53831;52.090;17.026;2023-03-23T01:14:08;10.50;99.90
66920;DHT22;53831;52.090;17.026;2023-03-23T01:15:09;10.50;99.90
66920;DHT22;53831;52.090;17.026;2023-03-23T01:16:10;10.50;99.90
66920;DHT22;53831;52.090;17.026;2023-03-23T01:17:11;10.40;99.90
66920;DHT22;53831;52.090;17.026;2023-03-23T01:18:21;10.40;99.90
66920;DHT22;53831;52.090;17.026;2023-03-23T01:19:21;10.30;99.90
66920;DHT22;53831;52.090;17.026;2023-03-23T01:20:23;10.30;99.90
66920;DHT22;53831;52.090;17.026;2023-03-23T01:21:24;10.20;99.90
66920;DHT22;53831;52.090;17.026;2023-03-23T01:22:25;10.20;99.90
66920;DHT22;53831;52.090;17.026;2023-03-23T01:23:25;10.20;99.90
66920;DHT22;53831;52.090;17.026;2023-03-23T01:24:26;10.20;99.90
66920;DHT22;53831;52.090;17.026;2023-03-23T01:25:28;10.30;99.90
66920;DHT22;53831;52.090;17.026;2023-03-23T01:26:32;10.30;99.90
66920;DHT22;53831;52.090;17.026;2023-03-23T01:27:33;10.30;99.90
66920;DHT22;53831;52.090;17.026;2023-03-23T01:28:34;10.30;99.90
66920;DHT22;53831;52.090;17.026;2023-03-23T01:29:36;10.40;99.90
66920;DHT22;53831;52.090;17.026;2023-03-23T01:30:37;10.40;99.90
66920;DHT22;53831;52.090;17.026;2023-03-23T01:31:38;10.40;99.90
66920;DHT22;53831;52.090;17.026;2023-03-23T01:32:40;10.40;99.90
66920;DHT22;53831;52.090;17.026;2023-03-23T01:33:41;10.40;99.90
66920;DHT22;53831;52.090;17.026;2023-03-23T01:34:43;10.40;99.90
66920;DHT22;53831;52.090;17.026;2023-03-23T01:35:43;10.40;99.90
66920;DHT22;53831;52.090;17.026;2023-03-23T01:36:44;10.40;99.90
66920;DHT22;53831;52.090;17.026;2023-03-23T01:37:45;10.40;99.90
66920;DHT22;53831;52.090;17.026;2023-03-23T01:38:48;10.40;99.90
66920;DHT22;53831;52.090;17.026;2023-03-23T01:39:50;10.40;99.90
66920;DHT22;53831;52.090;17.026;2023-03-23T01:40:50;10.40;99.90
66920;DHT22;53831;52.090;17.026;2023-03-23T01:41:51;10.40;99.90
66920;DHT22;53831;52.090;17.026;2023-03-23T01:42:55;10.40;99.90
66920;DHT22;53831;52.090;17.026;2023-03-23T01:45:26;10.30;99.90
66920;DHT22;53831;52.090;17.026;2023-03-23T01:46:31;10.30;99.90
66920;DHT22;53831;52.090;17.026;2023-03-23T01:47:34;10.20;99.90
66920;DHT22;53831;52.090;17.026;2023-03-23T01:48:35;10.20;99.90
66920;DHT22;53831;52.090;17.026;2023-03-23T01:49:46;10.20;99.90
66920;DHT22;53831;52.090;17.026;2023-03-23T01:52:03;10.10;99.90
66920;DHT22;53831;52.090;17.026;2023-03-23T01:53:07;10.20;99.90
66920;DHT22;53831;52.090;17.026;2023-03-23T01:54:12;10.20;99.90
66920;DHT22;53831;52.090;17.026;2023-03-23T01:55:14;10.20;99.90
66920;DHT22;53831;52.090;17.026;2023-03-23T01:56:16;10.20;99.90
66920;DHT22;53831;52.090;17.026;2023-03-23T01:57:21;10.10;99.90
66920;DHT22;53831;52.090;17.026;2023-03-23T01:58:27;10.10;99.90
66920;DHT22;53831;52.090;17.026;2023-03-23T01:59:33;10.10;99.90
66920;DHT22;53831;52.090;17.026;2023-03-23T02:00:49;10.10;99.90
66920;DHT22;53831;52.090;17.026;2023-03-23T02:01:50;10.10;99.90
66920;DHT22;53831;52.090;17.026;2023-03-23T02:02:53;10.20;99.90
66920;DHT22;53831;52.090;17.026;2023-03-23T02:03:56;10.20;99.90
66920;DHT22;53831;52.090;17.026;2023-03-23T02:04:59;10.20;99.90
66920;DHT22;53831;52.090;17.026;2023-03-23T02:06:05;10.20;99.90
66920;DHT22;53831;52.090;17.026;2023-03-23T02:07:11;10.20;99.90
66920;DHT22;53831;52.090;17.026;2023-03-23T02:08:14;10.20;99.90
66920;DHT22;53831;52.090;17.026;2023-03-23T02:09:16;10.30;99.90
66920;DHT22;53831;52.090;17.026;2023-03-23T02:10:18;10.30;99.90
66920;DHT22;53831;52.090;17.026;2023-03-23T02:11:20;10.30;99.90
66920;DHT22;53831;52.090;17.026;2023-03-23T02:12:22;10.30;99.90
66920;DHT22;53831;52.090;17.026;2023-03-23T02:13:23;10.30;99.90
66920;DHT22;53831;52.090;17.026;2023-03-23T02:14:26;10.30;99.90
66920;DHT22;53831;52.090;17.026;2023-03-23T02:15:34;10.30;99.90
66920;DHT22;53831;52.090;17.026;2023-03-23T02:18:28;10.40;99.90
66920;DHT22;53831;52.090;17.026;2023-03-23T02:19:55;10.40;99.90
66920;DHT22;53831;52.090;17.026;2023-03-23T02:25:29;10.50;99.90
66920;DHT22;53831;52.090;17.026;2023-03-23T02:26:49;10.60;99.90
66920;DHT22;53831;52.090;17.026;2023-03-23T02:28:22;10.60;99.90
66920;DHT22;53831;52.090;17.026;2023-03-23T02:29:52;10.60;99.90
66920;DHT22;53831;52.090;17.026;2023-03-23T02:33:49;10.60;99.90
66920;DHT22;53831;52.090;17.026;2023-03-23T02:34:59;10.60;99.90
66920;DHT22;53831;52.090;17.026;2023-03-23T02:37:05;10.60;99.90
66920;DHT22;53831;52.090;17.026;2023-03-23T02:38:14;10.60;99.90
66920;DHT22;53831;52.090;17.026;2023-03-23T02:39:25;10.60;99.90
66920;DHT22;53831;52.090;17.026;2023-03-23T02:40:41;10.60;99.90
66920;DHT22;53831;52.090;17.026;2023-03-23T02:41:47;10.60;99.90
66920;DHT22;53831;52.090;17.026;2023-03-23T02:42:53;10.60;99.90
66920;DHT22;53831;52.090;17.026;2023-03-23T02:43:57;10.50;99.90
66920;DHT22;53831;52.090;17.026;2023-03-23T02:44:59;10.50;99.90
66920;DHT22;53831;52.090;17.026;2023-03-23T02:46:04;10.50;99.90
66920;DHT22;53831;52.090;17.026;2023-03-23T02:47:09;10.50;99.90
66920;DHT22;53831;52.090;17.026;2023-03-23T02:48:15;10.50;99.90
66920;DHT22;53831;52.090;17.026;2023-03-23T02:49:20;10.50;99.90
66920;DHT22;53831;52.090;17.026;2023-03-23T02:50:24;10.50;99.90
66920;DHT22;53831;52.090;17.026;2023-03-23T02:51:27;10.50;99.90
66920;DHT22;53831;52.090;17.026;2023-03-23T02:52:31;10.50;99.90
66920;DHT22;53831;52.090;17.026;2023-03-23T02:53:33;10.50;99.90
66920;DHT22;53831;52.090;17.026;2023-03-23T02:54:37;10.50;99.90
66920;DHT22;53831;52.090;17.026;2023-03-23T02:55:39;10.50;99.90
66920;DHT22;53831;52.090;17.026;2023-03-23T02:56:44;10.50;99.90
66920;DHT22;53831;52.090;17.026;2023-03-23T02:57:52;10.50;99.90
66920;DHT22;53831;52.090;17.026;2023-03-23T02:58:54;10.50;99.90
66920;DHT22;53831;52.090;17.026;2023-03-23T02:59:55;10.50;99.90
66920;DHT22;53831;52.090;17.026;2023-03-23T03:00:56;10.50;99.90
66920;DHT22;53831;52.090;17.026;2023-03-23T03:02:07;10.50;99.90
66920;DHT22;53831;52.090;17.026;2023-03-23T03:03:11;10.50;99.90
66920;DHT22;53831;52.090;17.026;2023-03-23T03:04:16;10.50;99.90
66920;DHT22;53831;52.090;17.026;2023-03-23T03:06:37;10.60;99.90
66920;DHT22;53831;52.090;17.026;2023-03-23T03:07:45;10.60;99.90
66920;DHT22;53831;52.090;17.026;2023-03-23T03:09:07;10.60;99.90
66920;DHT22;53831;52.090;17.026;2023-03-23T03:11:26;10.60;99.90
66920;DHT22;53831;52.090;17.026;2023-03-23T03:16:18;10.40;99.90
66920;DHT22;53831;52.090;17.026;2023-03-23T03:17:27;10.50;99.90
66920;DHT22;53831;52.090;17.026;2023-03-23T03:18:36;10.50;99.90
66920;DHT22;53831;52.090;17.026;2023-03-23T03:19:57;10.50;99.90
66920;DHT22;53831;52.090;17.026;2023-03-23T03:21:07;10.60;99.90
66920;DHT22;53831;52.090;17.026;2023-03-23T03:22:13;10.60;99.90
66920;DHT22;53831;52.090;17.026;2023-03-23T03:23:15;10.60;99.90
66920;DHT22;53831;52.090;17.026;2023-03-23T03:24:18;10.60;99.90
66920;DHT22;53831;52.090;17.026;2023-03-23T03:25:24;10.70;99.90
66920;DHT22;53831;52.090;17.026;2023-03-23T03:26:30;10.70;99.90
66920;DHT22;53831;52.090;17.026;2023-03-23T03:27:46;10.70;99.90
66920;DHT22;53831;52.090;17.026;2023-03-23T03:28:54;10.80;99.90
66920;DHT22;53831;52.090;17.026;2023-03-23T03:29:56;10.80;99.90
66920;DHT22;53831;52.090;17.026;2023-03-23T03:31:01;10.80;99.90
66920;DHT22;53831;52.090;17.026;2023-03-23T03:32:04;10.80;99.90
66920;DHT22;53831;52.090;17.026;2023-03-23T03:33:07;10.80;99.90
66920;DHT22;53831;52.090;17.026;2023-03-23T03:34:07;10.80;99.90
66920;DHT22;53831;52.090;17.026;2023-03-23T03:35:09;10.80;99.90
66920;DHT22;53831;52.090;17.026;2023-03-23T03:36:16;10.80;99.90
66920;DHT22;53831;52.090;17.026;2023-03-23T03:37:21;10.80;99.90
66920;DHT22;53831;52.090;17.026;2023-03-23T03:38:23;10.80;99.90
66920;DHT22;53831;52.090;17.026;2023-03-23T03:39:25;10.80;99.90
66920;DHT22;53831;52.090;17.026;2023-03-23T03:40:27;10.90;99.90
66920;DHT22;53831;52.090;17.026;2023-03-23T04:16:56;11.10;99.90
66920;DHT22;53831;52.090;17.026;2023-03-23T04:39:02;11.20;99.90
66920;DHT22;53831;52.090;17.026;2023-03-23T04:45:43;11.30;99.90
66920;DHT22;53831;52.090;17.026;2023-03-23T04:50:02;11.30;99.90
66920;DHT22;53831;52.090;17.026;2023-03-23T05:01:10;11.50;99.90
66920;DHT22;53831;52.090;17.026;2023-03-23T05:07:07;11.50;99.90
66920;DHT22;53831;52.090;17.026;2023-03-23T05:43:40;11.50;99.90
66920;DHT22;53831;52.090;17.026;2023-03-23T05:56:33;11.80;99.90
66920;DHT22;53831;52.090;17.026;2023-03-23T06:00:31;12.00;99.90
66920;DHT22;53831;52.090;17.026;2023-03-23T06:09:11;12.40;99.90
66920;DHT22;53831;52.090;17.026;2023-03-23T06:13:04;12.50;99.90
66920;DHT22;53831;52.090;17.026;2023-03-23T06:23:47;12.60;99.90
66920;DHT22;53831;52.090;17.026;2023-03-23T06:41:56;12.90;99.90
66920;DHT22;53831;52.090;17.026;2023-03-23T06:43:15;13.00;99.90
66920;DHT22;53831;52.090;17.026;2023-03-23T06:48:51;13.10;99.90
66920;DHT22;53831;52.090;17.026;2023-03-23T06:55:07;13.40;99.90
66920;DHT22;53831;52.090;17.026;2023-03-23T07:05:01;14.00;99.90
66920;DHT22;53831;52.090;17.026;2023-03-23T07:15:19;14.30;99.90
66920;DHT22;53831;52.090;17.026;2023-03-23T07:21:18;14.60;99.90
66920;DHT22;53831;52.090;17.026;2023-03-23T07:29:11;14.90;99.90
66920;DHT22;53831;52.090;17.026;2023-03-23T07:31:12;15.10;99.90
66920;DHT22;53831;52.090;17.026;2023-03-23T07:32:19;15.20;99.90
66920;DHT22;53831;52.090;17.026;2023-03-23T07:33:38;15.30;99.90
66920;DHT22;53831;52.090;17.026;2023-03-23T07:35:48;15.30;99.90
66920;DHT22;53831;52.090;17.026;2023-03-23T07:37:22;15.50;99.90
66920;DHT22;53831;52.090;17.026;2023-03-23T07:40:49;15.60;99.90
66920;DHT22;53831;52.090;17.026;2023-03-23T07:42:37;15.70;99.90
66920;DHT22;53831;52.090;17.026;2023-03-23T07:44:11;15.80;99.90
66920;DHT22;53831;52.090;17.026;2023-03-23T07:45:41;15.70;99.90
66920;DHT22;53831;52.090;17.026;2023-03-23T07:47:48;15.70;99.90
66920;DHT22;53831;52.090;17.026;2023-03-23T07:53:18;15.70;99.90
66920;DHT22;53831;52.090;17.026;2023-03-23T07:55:17;15.60;99.90
66920;DHT22;53831;52.090;17.026;2023-03-23T07:56:54;15.50;99.90
66920;DHT22;53831;52.090;17.026;2023-03-23T07:58:42;15.60;99.90
66920;DHT22;53831;52.090;17.026;2023-03-23T08:08:50;15.40;99.90
66920;DHT22;53831;52.090;17.026;2023-03-23T08:10:58;15.40;99.90
66920;DHT22;53831;52.090;17.026;2023-03-23T08:12:44;15.20;99.90
66920;DHT22;53831;52.090;17.026;2023-03-23T08:14:27;15.30;99.90
66920;DHT22;53831;52.090;17.026;2023-03-23T08:16:20;15.30;99.90
66920;DHT22;53831;52.090;17.026;2023-03-23T08:18:45;15.30;99.90
66920;DHT22;53831;52.090;17.026;2023-03-23T08:20:28;15.40;99.90
66920;DHT22;53831;52.090;17.026;2023-03-23T08:22:31;15.40;99.90
66920;DHT22;53831;52.090;17.026;2023-03-23T08:26:30;15.60;99.90
66920;DHT22;53831;52.090;17.026;2023-03-23T08:28:32;15.70;99.90
66920;DHT22;53831;52.090;17.026;2023-03-23T08:30:02;15.80;99.90
66920;DHT22;53831;52.090;17.026;2023-03-23T08:32:01;15.80;99.90
66920;DHT22;53831;52.090;17.026;2023-03-23T08:38:20;16.00;99.90
66920;DHT22;53831;52.090;17.026;2023-03-23T08:46:44;16.00;99.90
66920;DHT22;53831;52.090;17.026;2023-03-23T08:52:48;16.10;99.90
66920;DHT22;53831;52.090;17.026;2023-03-23T08:58:54;16.50;99.90
66920;DHT22;53831;52.090;17.026;2023-03-23T09:05:44;16.90;99.90
66920;DHT22;53831;52.090;17.026;2023-03-23T09:12:08;17.30;99.90
66920;DHT22;53831;52.090;17.026;2023-03-23T09:15:11;17.40;99.90
66920;DHT22;53831;52.090;17.026;2023-03-23T09:16:20;17.30;99.90
66920;DHT22;53831;52.090;17.026;2023-03-23T09:18:00;17.30;99.90
66920;DHT22;53831;52.090;17.026;2023-03-23T09:19:01;17.20;99.90
66920;DHT22;53831;52.090;17.026;2023-03-23T09:21:40;17.30;99.90
66920;DHT22;53831;52.090;17.026;2023-03-23T09:23:22;17.40;99.90
66920;DHT22;53831;52.090;17.026;2023-03-23T09:24:45;17.50;99.90
66920;DHT22;53831;52.090;17.026;2023-03-23T09:27:30;17.50;99.90
66920;DHT22;53831;52.090;17.026;2023-03-23T09:28:49;17.40;99.90
66920;DHT22;53831;52.090;17.026;2023-03-23T09:31:35;17.60;99.90
66920;DHT22;53831;52.090;17.026;2023-03-23T09:32:38;17.50;99.90
66920;DHT22;53831;52.090;17.026;2023-03-23T09:33:39;17.50;99.90
66920;DHT22;53831;52.090;17.026;2023-03-23T09:34:40;17.40;99.90
66920;DHT22;53831;52.090;17.026;2023-03-23T09:35:43;17.50;99.90
66920;DHT22;53831;52.090;17.026;2023-03-23T09:38:43;17.30;99.90
66920;DHT22;53831;52.090;17.026;2023-03-23T09:39:51;17.30;99.90
66920;DHT22;53831;52.090;17.026;2023-03-23T09:48:29;17.70;99.90
66920;DHT22;53831;52.090;17.026;2023-03-23T09:49:33;17.70;99.90
66920;DHT22;53831;52.090;17.026;2023-03-23T09:50:35;17.80;99.90
66920;DHT22;53831;52.090;17.026;2023-03-23T09:51:40;17.80;99.90
66920;DHT22;53831;52.090;17.026;2023-03-23T09:54:28;17.80;99.90
66920;DHT22;53831;52.090;17.026;2023-03-23T09:55:29;17.80;99.90
66920;DHT22;53831;52.090;17.026;2023-03-23T09:56:30;17.90;99.90
66920;DHT22;53831;52.090;17.026;2023-03-23T09:57:34;17.90;99.90
66920;DHT22;53831;52.090;17.026;2023-03-23T09:58:40;17.90;99.90
66920;DHT22;53831;52.090;17.026;2023-03-23T10:00:57;17.80;99.90
66920;DHT22;53831;52.090;17.026;2023-03-23T10:02:04;17.80;99.90
66920;DHT22;53831;52.090;17.026;2023-03-23T10:03:14;17.80;99.90
66920;DHT22;53831;52.090;17.026;2023-03-23T10:04:24;17.70;99.90
66920;DHT22;53831;52.090;17.026;2023-03-23T10:05:37;17.70;99.90
66920;DHT22;53831;52.090;17.026;2023-03-23T10:06:39;17.50;99.90
66920;DHT22;53831;52.090;17.026;2023-03-23T10:07:40;17.40;99.90
66920;DHT22;53831;52.090;17.026;2023-03-23T10:08:50;17.20;99.90
66920;DHT22;53831;52.090;17.026;2023-03-23T10:09:53;17.10;99.90
66920;DHT22;53831;52.090;17.026;2023-03-23T10:15:46;16.70;99.90
66920;DHT22;53831;52.090;17.026;2023-03-23T10:19:29;16.50;99.90
66920;DHT22;53831;52.090;17.026;2023-03-23T10:21:38;16.50;99.90
66920;DHT22;53831;52.090;17.026;2023-03-23T10:22:40;16.50;99.90
66920;DHT22;53831;52.090;17.026;2023-03-23T10:24:00;16.40;99.90
66920;DHT22;53831;52.090;17.026;2023-03-23T10:28:32;16.50;99.90
66920;DHT22;53831;52.090;17.026;2023-03-23T10:29:39;16.40;99.90
66920;DHT22;53831;52.090;17.026;2023-03-23T10:30:41;16.50;99.90
66920;DHT22;53831;52.090;17.026;2023-03-23T10:31:44;16.50;99.90
66920;DHT22;53831;52.090;17.026;2023-03-23T10:32:48;16.50;99.90
66920;DHT22;53831;52.090;17.026;2023-03-23T10:33:52;16.50;99.90
66920;DHT22;53831;52.090;17.026;2023-03-23T10:34:55;16.50;99.90
66920;DHT22;53831;52.090;17.026;2023-03-23T10:36:01;16.60;99.90
66920;DHT22;53831;52.090;17.026;2023-03-23T10:37:17;16.60;99.90
66920;DHT22;53831;52.090;17.026;2023-03-23T10:38:20;16.60;99.90
66920;DHT22;53831;52.090;17.026;2023-03-23T10:39:23;16.60;99.90
66920;DHT22;53831;52.090;17.026;2023-03-23T10:40:25;16.70;99.90
66920;DHT22;53831;52.090;17.026;2023-03-23T10:41:27;16.70;99.90
66920;DHT22;53831;52.090;17.026;2023-03-23T10:42:31;16.70;99.90
66920;DHT22;53831;52.090;17.026;2023-03-23T10:43:32;16.70;99.90
66920;DHT22;53831;52.090;17.026;2023-03-23T10:44:33;16.80;99.90
66920;DHT22;53831;52.090;17.026;2023-03-23T10:45:34;16.90;99.90
66920;DHT22;53831;52.090;17.026;2023-03-23T10:46:42;17.00;99.90
66920;DHT22;53831;52.090;17.026;2023-03-23T10:47:56;17.00;99.90
66920;DHT22;53831;52.090;17.026;2023-03-23T10:48:59;16.90;99.90
66920;DHT22;53831;52.090;17.026;2023-03-23T10:50:02;17.00;99.90
66920;DHT22;53831;52.090;17.026;2023-03-23T10:51:09;17.10;99.90
66920;DHT22;53831;52.090;17.026;2023-03-23T10:52:24;17.10;99.90
66920;DHT22;53831;52.090;17.026;2023-03-23T10:53:29;17.00;99.90
66920;DHT22;53831;52.090;17.026;2023-03-23T10:54:35;17.00;99.90
66920;DHT22;53831;52.090;17.026;2023-03-23T10:55:37;17.00;99.90
66920;DHT22;53831;52.090;17.026;2023-03-23T10:57:41;17.10;99.90
66920;DHT22;53831;52.090;17.026;2023-03-23T10:58:41;17.10;99.90
66920;DHT22;53831;52.090;17.026;2023-03-23T10:59:42;17.10;99.90
66920;DHT22;53831;52.090;17.026;2023-03-23T11:00:46;17.10;99.90
66920;DHT22;53831;52.090;17.026;2023-03-23T11:01:51;17.10;99.90
66920;DHT22;53831;52.090;17.026;2023-03-23T11:03:59;17.20;99.90
66920;DHT22;53831;52.090;17.026;2023-03-23T11:05:06;17.30;99.90
66920;DHT22;53831;52.090;17.026;2023-03-23T11:06:29;17.20;99.90
66920;DHT22;53831;52.090;17.026;2023-03-23T11:07:29;17.20;99.90
66920;DHT22;53831;52.090;17.026;2023-03-23T11:08:35;17.10;99.90
66920;DHT22;53831;52.090;17.026;2023-03-23T11:09:37;17.00;99.90
66920;DHT22;53831;52.090;17.026;2023-03-23T11:10:39;16.90;99.90
66920;DHT22;53831;52.090;17.026;2023-03-23T11:11:42;16.90;99.90
66920;DHT22;53831;52.090;17.026;2023-03-23T11:12:43;17.00;99.90
66920;DHT22;53831;52.090;17.026;2023-03-23T11:13:45;17.00;99.90
66920;DHT22;53831;52.090;17.026;2023-03-23T11:14:46;17.00;99.90
66920;DHT22;53831;52.090;17.026;2023-03-23T11:15:47;16.90;99.90
66920;DHT22;53831;52.090;17.026;2023-03-23T11:16:51;16.90;99.90
66920;DHT22;53831;52.090;17.026;2023-03-23T11:18:01;16.80;99.90
66920;DHT22;53831;52.090;17.026;2023-03-23T11:19:12;16.80;99.90
66920;DHT22;53831;52.090;17.026;2023-03-23T11:20:18;16.60;99.90
66920;DHT22;53831;52.090;17.026;2023-03-23T11:21:21;16.50;99.90
66920;DHT22;53831;52.090;17.026;2023-03-23T11:22:29;16.50;99.90
66920;DHT22;53831;52.090;17.026;2023-03-23T11:23:35;16.40;99.90
66920;DHT22;53831;52.090;17.026;2023-03-23T11:24:40;16.30;99.90
66920;DHT22;53831;52.090;17.026;2023-03-23T11:25:49;16.20;99.90
66920;DHT22;53831;52.090;17.026;2023-03-23T11:26:50;16.30;99.90
66920;DHT22;53831;52.090;17.026;2023-03-23T11:27:51;16.30;99.90
66920;DHT22;53831;52.090;17.026;2023-03-23T11:28:55;16.30;99.90
66920;DHT22;53831;52.090;17.026;2023-03-23T11:30:57;16.20;99.90
66920;DHT22;53831;52.090;17.026;2023-03-23T11:32:59;16.20;99.90
66920;DHT22;53831;52.090;17.026;2023-03-23T11:34:03;16.20;99.90
66920;DHT22;53831;52.090;17.026;2023-03-23T11:35:05;16.10;99.90
66920;DHT22;53831;52.090;17.026;2023-03-23T11:36:08;16.00;99.90
66920;DHT22;53831;52.090;17.026;2023-03-23T11:37:14;15.90;99.90
66920;DHT22;53831;52.090;17.026;2023-03-23T11:38:18;15.90;99.90
66920;DHT22;53831;52.090;17.026;2023-03-23T11:40:30;15.70;99.90
66920;DHT22;53831;52.090;17.026;2023-03-23T11:41:32;15.80;99.90
66920;DHT22;53831;52.090;17.026;2023-03-23T11:42:35;15.80;99.90
66920;DHT22;53831;52.090;17.026;2023-03-23T11:43:38;15.90;99.90
66920;DHT22;53831;52.090;17.026;2023-03-23T11:44:43;16.00;99.90
66920;DHT22;53831;52.090;17.026;2023-03-23T11:45:48;16.10;99.90
66920;DHT22;53831;52.090;17.026;2023-03-23T11:48:21;16.40;99.90
66920;DHT22;53831;52.090;17.026;2023-03-23T11:50:34;16.50;99.90
66920;DHT22;53831;52.090;17.026;2023-03-23T11:52:46;16.80;99.90
66920;DHT22;53831;52.090;17.026;2023-03-23T11:53:50;16.90;99.90
66920;DHT22;53831;52.090;17.026;2023-03-23T11:54:57;17.10;99.90
66920;DHT22;53831;52.090;17.026;2023-03-23T11:56:08;16.90;99.90
66920;DHT22;53831;52.090;17.026;2023-03-23T11:57:10;16.90;99.90
66920;DHT22;53831;52.090;17.026;2023-03-23T11:58:17;16.90;99.90
66920;DHT22;53831;52.090;17.026;2023-03-23T11:59:26;16.90;99.90
66920;DHT22;53831;52.090;17.026;2023-03-23T12:00:27;17.00;99.90
66920;DHT22;53831;52.090;17.026;2023-03-23T12:01:41;17.00;99.90
66920;DHT22;53831;52.090;17.026;2023-03-23T12:04:40;17.00;99.90
66920;DHT22;53831;52.090;17.026;2023-03-23T12:05:51;16.90;99.90
66920;DHT22;53831;52.090;17.026;2023-03-23T12:15:02;17.10;99.90
66920;DHT22;53831;52.090;17.026;2023-03-23T12:19:04;16.80;99.90
66920;DHT22;53831;52.090;17.026;2023-03-23T12:22:07;16.50;99.90
66920;DHT22;53831;52.090;17.026;2023-03-23T12:27:03;16.10;99.90
66920;DHT22;53831;52.090;17.026;2023-03-23T12:31:08;16.00;99.90
66920;DHT22;53831;52.090;17.026;2023-03-23T12:33:55;16.10;99.90
66920;DHT22;53831;52.090;17.026;2023-03-23T12:36:15;16.00;99.90
66920;DHT22;53831;52.090;17.026;2023-03-23T12:38:27;15.90;99.90
66920;DHT22;53831;52.090;17.026;2023-03-23T12:40:59;15.90;99.90
66920;DHT22;53831;52.090;17.026;2023-03-23T12:44:06;15.90;99.90
66920;DHT22;53831;52.090;17.026;2023-03-23T12:44:46;16.00;99.90
66920;DHT22;53831;52.090;17.026;2023-03-23T12:47:09;16.00;99.90